sensor_id;sensor_type;location;lat;lon;timestamp;P1;durP1;ratioP1;P2;durP2;ratioP2
14241;SDS011;7205;50.864;12.766;2023-08-01T00:00:43;2.83;;;2.20;;
14241;SDS011;7205;50.864;12.766;2023-08-01T00:03:10;2.80;;;2.13;;
14241;SDS011;7205;50.864;12.766;2023-08-01T00:05:39;5.27;;;2.50;;
14241;SDS011;7205;50.864;12.766;2023-08-01T00:08:09;2.37;;;2.17;;
14241;SDS011;7205;50.864;12.766;2023-08-01T00:10:39;2.60;;;2.40;;
14241;SDS011;7205;50.864;12.766;2023-08-01T00:13:06;2.50;;;2.30;;
14241;SDS011;7205;50.864;12.766;2023-08-01T00:15:34;1.97;;;1.87;;
14241;SDS011;7205;50.864;12.766;2023-08-01T00:18:01;2.27;;;2.17;;
14241;SDS011;7205;50.864;12.766;2023-08-01T00:20:28;2.03;;;1.93;;
14241;SDS011;7205;50.864;12.766;2023-08-01T00:22:54;3.57;;;2.23;;
14241;SDS011;7205;50.864;12.766;2023-08-01T00:25:21;3.03;;;2.20;;
14241;SDS011;7205;50.864;12.766;2023-08-01T00:27:49;2.47;;;2.27;;
14241;SDS011;7205;50.864;12.766;2023-08-01T00:30:16;2.53;;;2.23;;
14241;SDS011;7205;50.864;12.766;2023-08-01T00:32:43;3.47;;;2.50;;
14241;SDS011;7205;50.864;12.766;2023-08-01T00:35:10;2.50;;;2.30;;
14241;SDS011;7205;50.864;12.766;2023-08-01T00:37:37;3.37;;;2.40;;
14241;SDS011;7205;50.864;12.766;2023-08-01T00:40:05;3.80;;;2.47;;
14241;SDS011;7205;50.864;12.766;2023-08-01T00:42:35;2.50;;;2.30;;
14241;SDS011;7205;50.864;12.766;2023-08-01T00:45:04;3.23;;;2.23;;
14241;SDS011;7205;50.864;12.766;2023-08-01T00:47:31;2.67;;;2.47;;
14241;SDS011;7205;50.864;12.766;2023-08-01T00:49:59;2.53;;;2.33;;
14241;SDS011;7205;50.864;12.766;2023-08-01T00:52:25;2.87;;;2.50;;
14241;SDS011;7205;50.864;12.766;2023-08-01T00:54:53;4.57;;;2.50;;
14241;SDS011;7205;50.864;12.766;2023-08-01T00:57:20;3.07;;;2.53;;
14241;SDS011;7205;50.864;12.766;2023-08-01T00:59:47;2.53;;;2.33;;
14241;SDS011;7205;50.864;12.766;2023-08-01T01:02:15;2.73;;;2.43;;
14241;SDS011;7205;50.864;12.766;2023-08-01T01:04:42;4.83;;;2.50;;
14241;SDS011;7205;50.864;12.766;2023-08-01T01:07:09;2.90;;;2.37;;
14241;SDS011;7205;50.864;12.766;2023-08-01T01:09:36;2.70;;;2.50;;
14241;SDS011;7205;50.864;12.766;2023-08-01T01:12:03;2.83;;;2.53;;
14241;SDS011;7205;50.864;12.766;2023-08-01T01:14:30;2.80;;;2.60;;
14241;SDS011;7205;50.864;12.766;2023-08-01T01:16:57;3.03;;;2.73;;
14241;SDS011;7205;50.864;12.766;2023-08-01T01:19:26;3.33;;;2.50;;
14241;SDS011;7205;50.864;12.766;2023-08-01T01:21:54;3.13;;;2.60;;
14241;SDS011;7205;50.864;12.766;2023-08-01T01:24:24;2.63;;;2.40;;
14241;SDS011;7205;50.864;12.766;2023-08-01T01:26:52;3.37;;;2.80;;
14241;SDS011;7205;50.864;12.766;2023-08-01T01:29:20;3.17;;;2.70;;
14241;SDS011;7205;50.864;12.766;2023-08-01T01:31:49;2.83;;;2.63;;
14241;SDS011;7205;50.864;12.766;2023-08-01T01:34:17;2.53;;;2.33;;
14241;SDS011;7205;50.864;12.766;2023-08-01T01:36:44;3.93;;;2.53;;
14241;SDS011;7205;50.864;12.766;2023-08-01T01:39:12;2.80;;;2.60;;
14241;SDS011;7205;50.864;12.766;2023-08-01T01:41:39;3.10;;;2.70;;
14241;SDS011;7205;50.864;12.766;2023-08-01T01:44:06;4.03;;;2.50;;
14241;SDS011;7205;50.864;12.766;2023-08-01T01:46:33;2.37;;;2.17;;
14241;SDS011;7205;50.864;12.766;2023-08-01T01:48:59;3.00;;;2.07;;
14241;SDS011;7205;50.864;12.766;2023-08-01T01:51:26;2.97;;;2.13;;
14241;SDS011;7205;50.864;12.766;2023-08-01T01:53:54;3.80;;;2.20;;
14241;SDS011;7205;50.864;12.766;2023-08-01T01:56:23;2.40;;;2.13;;
14241;SDS011;7205;50.864;12.766;2023-08-01T01:58:50;2.13;;;2.00;;
14241;SDS011;7205;50.864;12.766;2023-08-01T02:01:16;2.83;;;2.10;;
14241;SDS011;7205;50.864;12.766;2023-08-01T02:03:43;2.73;;;2.47;;
14241;SDS011;7205;50.864;12.766;2023-08-01T02:06:10;2.60;;;2.17;;
14241;SDS011;7205;50.864;12.766;2023-08-01T02:08:37;2.07;;;1.87;;
14241;SDS011;7205;50.864;12.766;2023-08-01T02:11:04;2.47;;;2.07;;
14241;SDS011;7205;50.864;12.766;2023-08-01T02:13:32;2.07;;;1.90;;
14241;SDS011;7205;50.864;12.766;2023-08-01T02:15:59;3.80;;;1.90;;
14241;SDS011;7205;50.864;12.766;2023-08-01T02:18:26;2.20;;;2.00;;
14241;SDS011;7205;50.864;12.766;2023-08-01T02:20:53;1.93;;;1.83;;
14241;SDS011;7205;50.864;12.766;2023-08-01T02:23:19;1.87;;;1.77;;
14241;SDS011;7205;50.864;12.766;2023-08-01T02:25:46;2.40;;;2.00;;
14241;SDS011;7205;50.864;12.766;2023-08-01T02:28:13;1.90;;;1.80;;
14241;SDS011;7205;50.864;12.766;2023-08-01T02:30:41;2.23;;;2.03;;
14241;SDS011;7205;50.864;12.766;2023-08-01T02:33:08;2.57;;;2.00;;
14241;SDS011;7205;50.864;12.766;2023-08-01T02:35:35;2.27;;;2.10;;
14241;SDS011;7205;50.864;12.766;2023-08-01T02:38:02;1.90;;;1.80;;
14241;SDS011;7205;50.864;12.766;2023-08-01T02:40:29;2.03;;;1.70;;
14241;SDS011;7205;50.864;12.766;2023-08-01T02:42:56;3.93;;;1.87;;
14241;SDS011;7205;50.864;12.766;2023-08-01T02:45:22;2.07;;;1.97;;
14241;SDS011;7205;50.864;12.766;2023-08-01T02:47:51;1.83;;;1.73;;
14241;SDS011;7205;50.864;12.766;2023-08-01T02:50:18;1.77;;;1.67;;
14241;SDS011;7205;50.864;12.766;2023-08-01T02:52:45;3.63;;;1.70;;
14241;SDS011;7205;50.864;12.766;2023-08-01T02:55:12;1.77;;;1.67;;
14241;SDS011;7205;50.864;12.766;2023-08-01T02:57:38;1.93;;;1.63;;
14241;SDS011;7205;50.864;12.766;2023-08-01T03:00:06;1.80;;;1.70;;
14241;SDS011;7205;50.864;12.766;2023-08-01T03:02:37;1.60;;;1.50;;
14241;SDS011;7205;50.864;12.766;2023-08-01T03:05:07;1.70;;;1.60;;
14241;SDS011;7205;50.864;12.766;2023-08-01T03:07:35;2.10;;;1.90;;
14241;SDS011;7205;50.864;12.766;2023-08-01T03:10:02;1.67;;;1.57;;
14241;SDS011;7205;50.864;12.766;2023-08-01T03:12:29;1.80;;;1.70;;
14241;SDS011;7205;50.864;12.766;2023-08-01T03:14:57;1.73;;;1.50;;
14241;SDS011;7205;50.864;12.766;2023-08-01T03:17:24;1.73;;;1.23;;
14241;SDS011;7205;50.864;12.766;2023-08-01T03:19:50;1.40;;;1.30;;
14241;SDS011;7205;50.864;12.766;2023-08-01T03:22:19;3.10;;;1.40;;
14241;SDS011;7205;50.864;12.766;2023-08-01T03:24:46;1.37;;;1.27;;
14241;SDS011;7205;50.864;12.766;2023-08-01T03:27:13;1.50;;;1.40;;
14241;SDS011;7205;50.864;12.766;2023-08-01T03:29:39;1.77;;;1.67;;
14241;SDS011;7205;50.864;12.766;2023-08-01T03:32:06;1.73;;;1.60;;
14241;SDS011;7205;50.864;12.766;2023-08-01T03:34:33;1.70;;;1.60;;
14241;SDS011;7205;50.864;12.766;2023-08-01T03:37:00;1.73;;;1.63;;
14241;SDS011;7205;50.864;12.766;2023-08-01T03:39:28;2.47;;;1.40;;
14241;SDS011;7205;50.864;12.766;2023-08-01T03:41:55;1.60;;;1.50;;
14241;SDS011;7205;50.864;12.766;2023-08-01T03:44:22;1.70;;;1.43;;
14241;SDS011;7205;50.864;12.766;2023-08-01T03:46:48;1.47;;;1.37;;
14241;SDS011;7205;50.864;12.766;2023-08-01T03:49:15;1.63;;;1.53;;
14241;SDS011;7205;50.864;12.766;2023-08-01T03:51:42;1.50;;;1.40;;
14241;SDS011;7205;50.864;12.766;2023-08-01T03:54:09;1.97;;;1.50;;
14241;SDS011;7205;50.864;12.766;2023-08-01T03:56:37;1.80;;;1.70;;
14241;SDS011;7205;50.864;12.766;2023-08-01T03:59:08;1.40;;;1.30;;
14241;SDS011;7205;50.864;12.766;2023-08-01T04:01:35;1.40;;;1.30;;
14241;SDS011;7205;50.864;12.766;2023-08-01T04:04:02;1.50;;;1.17;;
14241;SDS011;7205;50.864;12.766;2023-08-01T04:06:29;2.10;;;1.20;;
14241;SDS011;7205;50.864;12.766;2023-08-01T04:08:56;1.23;;;1.13;;
14241;SDS011;7205;50.864;12.766;2023-08-01T04:11:22;2.17;;;1.23;;
14241;SDS011;7205;50.864;12.766;2023-08-01T04:13:51;1.63;;;1.20;;
14241;SDS011;7205;50.864;12.766;2023-08-01T04:16:17;1.27;;;1.10;;
14241;SDS011;7205;50.864;12.766;2023-08-01T04:18:44;1.60;;;1.03;;
14241;SDS011;7205;50.864;12.766;2023-08-01T04:21:13;1.30;;;1.20;;
14241;SDS011;7205;50.864;12.766;2023-08-01T04:23:41;1.43;;;1.20;;
14241;SDS011;7205;50.864;12.766;2023-08-01T04:26:07;1.20;;;1.10;;
14241;SDS011;7205;50.864;12.766;2023-08-01T04:28:34;1.10;;;1.00;;
14241;SDS011;7205;50.864;12.766;2023-08-01T04:31:02;2.20;;;0.70;;
14241;SDS011;7205;50.864;12.766;2023-08-01T04:33:29;1.67;;;1.17;;
14241;SDS011;7205;50.864;12.766;2023-08-01T04:35:56;0.80;;;0.80;;
14241;SDS011;7205;50.864;12.766;2023-08-01T04:38:23;1.00;;;0.90;;
14241;SDS011;7205;50.864;12.766;2023-08-01T04:40:49;1.10;;;0.97;;
14241;SDS011;7205;50.864;12.766;2023-08-01T04:43:16;1.80;;;1.00;;
14241;SDS011;7205;50.864;12.766;2023-08-01T04:45:43;1.63;;;1.13;;
14241;SDS011;7205;50.864;12.766;2023-08-01T04:48:11;0.73;;;0.73;;
14241;SDS011;7205;50.864;12.766;2023-08-01T04:50:38;1.03;;;0.70;;
14241;SDS011;7205;50.864;12.766;2023-08-01T04:53:04;0.93;;;0.93;;
14241;SDS011;7205;50.864;12.766;2023-08-01T04:55:31;1.10;;;1.00;;
14241;SDS011;7205;50.864;12.766;2023-08-01T04:57:58;0.90;;;0.90;;
14241;SDS011;7205;50.864;12.766;2023-08-01T05:00:25;0.80;;;0.80;;
14241;SDS011;7205;50.864;12.766;2023-08-01T05:02:51;1.23;;;1.13;;
14241;SDS011;7205;50.864;12.766;2023-08-01T05:05:20;0.93;;;0.90;;
14241;SDS011;7205;50.864;12.766;2023-08-01T05:07:46;1.30;;;1.20;;
14241;SDS011;7205;50.864;12.766;2023-08-01T05:10:13;1.10;;;1.10;;
14241;SDS011;7205;50.864;12.766;2023-08-01T05:12:40;0.97;;;0.70;;
14241;SDS011;7205;50.864;12.766;2023-08-01T05:15:07;1.00;;;1.00;;
14241;SDS011;7205;50.864;12.766;2023-08-01T05:17:34;1.97;;;1.43;;
14241;SDS011;7205;50.864;12.766;2023-08-01T05:20:01;1.67;;;1.00;;
14241;SDS011;7205;50.864;12.766;2023-08-01T05:22:30;1.30;;;1.20;;
14241;SDS011;7205;50.864;12.766;2023-08-01T05:24:56;1.40;;;1.30;;
14241;SDS011;7205;50.864;12.766;2023-08-01T05:27:23;1.20;;;1.20;;
14241;SDS011;7205;50.864;12.766;2023-08-01T05:29:50;2.03;;;1.70;;
14241;SDS011;7205;50.864;12.766;2023-08-01T05:32:16;1.40;;;1.30;;
14241;SDS011;7205;50.864;12.766;2023-08-01T05:34:43;1.40;;;1.30;;
14241;SDS011;7205;50.864;12.766;2023-08-01T05:37:10;1.40;;;1.30;;
14241;SDS011;7205;50.864;12.766;2023-08-01T05:39:38;1.60;;;1.50;;
14241;SDS011;7205;50.864;12.766;2023-08-01T05:42:05;1.43;;;1.33;;
14241;SDS011;7205;50.864;12.766;2023-08-01T05:44:33;1.73;;;1.50;;
14241;SDS011;7205;50.864;12.766;2023-08-01T05:47:00;2.57;;;1.60;;
14241;SDS011;7205;50.864;12.766;2023-08-01T05:49:27;1.70;;;1.60;;
14241;SDS011;7205;50.864;12.766;2023-08-01T05:51:54;1.60;;;1.50;;
14241;SDS011;7205;50.864;12.766;2023-08-01T05:54:21;1.57;;;1.43;;
14241;SDS011;7205;50.864;12.766;2023-08-01T05:56:49;1.60;;;1.50;;
14241;SDS011;7205;50.864;12.766;2023-08-01T05:59:16;1.60;;;1.50;;
14241;SDS011;7205;50.864;12.766;2023-08-01T06:01:43;1.97;;;1.87;;
14241;SDS011;7205;50.864;12.766;2023-08-01T06:04:10;1.77;;;1.67;;
14241;SDS011;7205;50.864;12.766;2023-08-01T06:06:37;2.20;;;2.00;;
14241;SDS011;7205;50.864;12.766;2023-08-01T06:09:03;2.53;;;2.03;;
14241;SDS011;7205;50.864;12.766;2023-08-01T06:11:30;1.73;;;1.63;;
14241;SDS011;7205;50.864;12.766;2023-08-01T06:14:00;2.00;;;1.90;;
14241;SDS011;7205;50.864;12.766;2023-08-01T06:16:26;2.27;;;2.07;;
14241;SDS011;7205;50.864;12.766;2023-08-01T06:18:53;1.80;;;1.70;;
14241;SDS011;7205;50.864;12.766;2023-08-01T06:21:20;1.93;;;1.73;;
14241;SDS011;7205;50.864;12.766;2023-08-01T06:23:47;1.73;;;1.63;;
14241;SDS011;7205;50.864;12.766;2023-08-01T06:26:13;1.80;;;1.70;;
14241;SDS011;7205;50.864;12.766;2023-08-01T06:28:41;1.97;;;1.67;;
14241;SDS011;7205;50.864;12.766;2023-08-01T06:31:09;1.80;;;1.60;;
14241;SDS011;7205;50.864;12.766;2023-08-01T06:33:36;2.40;;;2.07;;
14241;SDS011;7205;50.864;12.766;2023-08-01T06:36:04;1.83;;;1.63;;
14241;SDS011;7205;50.864;12.766;2023-08-01T06:38:31;1.70;;;1.60;;
14241;SDS011;7205;50.864;12.766;2023-08-01T06:40:58;2.40;;;2.20;;
14241;SDS011;7205;50.864;12.766;2023-08-01T06:43:25;2.03;;;1.70;;
14241;SDS011;7205;50.864;12.766;2023-08-01T06:45:51;1.70;;;1.57;;
14241;SDS011;7205;50.864;12.766;2023-08-01T06:48:20;2.97;;;2.73;;
14241;SDS011;7205;50.864;12.766;2023-08-01T06:50:46;1.83;;;1.73;;
14241;SDS011;7205;50.864;12.766;2023-08-01T06:53:13;1.60;;;1.50;;
14241;SDS011;7205;50.864;12.766;2023-08-01T06:55:40;1.80;;;1.70;;
14241;SDS011;7205;50.864;12.766;2023-08-01T06:58:07;1.60;;;1.50;;
14241;SDS011;7205;50.864;12.766;2023-08-01T07:00:33;1.67;;;1.57;;
14241;SDS011;7205;50.864;12.766;2023-08-01T07:03:00;1.70;;;1.60;;
14241;SDS011;7205;50.864;12.766;2023-08-01T07:05:28;2.60;;;1.50;;
14241;SDS011;7205;50.864;12.766;2023-08-01T07:07:55;2.57;;;1.40;;
14241;SDS011;7205;50.864;12.766;2023-08-01T07:10:23;1.83;;;1.53;;
14241;SDS011;7205;50.864;12.766;2023-08-01T07:12:50;1.70;;;1.60;;
14241;SDS011;7205;50.864;12.766;2023-08-01T07:15:17;1.53;;;1.43;;
14241;SDS011;7205;50.864;12.766;2023-08-01T07:17:44;1.90;;;1.80;;
14241;SDS011;7205;50.864;12.766;2023-08-01T07:20:10;1.47;;;1.37;;
14241;SDS011;7205;50.864;12.766;2023-08-01T07:22:39;1.37;;;1.37;;
14241;SDS011;7205;50.864;12.766;2023-08-01T07:25:06;1.50;;;1.40;;
14241;SDS011;7205;50.864;12.766;2023-08-01T07:27:33;2.43;;;2.00;;
14241;SDS011;7205;50.864;12.766;2023-08-01T07:30:03;2.20;;;2.00;;
14241;SDS011;7205;50.864;12.766;2023-08-01T07:32:30;1.77;;;1.67;;
14241;SDS011;7205;50.864;12.766;2023-08-01T07:35:00;2.27;;;1.90;;
14241;SDS011;7205;50.864;12.766;2023-08-01T07:37:27;1.47;;;1.37;;
14241;SDS011;7205;50.864;12.766;2023-08-01T07:39:55;2.23;;;2.13;;
14241;SDS011;7205;50.864;12.766;2023-08-01T07:42:22;1.47;;;1.30;;
14241;SDS011;7205;50.864;12.766;2023-08-01T07:44:49;2.40;;;1.40;;
14241;SDS011;7205;50.864;12.766;2023-08-01T07:47:16;1.43;;;1.20;;
14241;SDS011;7205;50.864;12.766;2023-08-01T07:49:43;1.00;;;1.00;;
14241;SDS011;7205;50.864;12.766;2023-08-01T07:52:09;1.50;;;1.23;;
14241;SDS011;7205;50.864;12.766;2023-08-01T07:54:36;1.00;;;1.00;;
14241;SDS011;7205;50.864;12.766;2023-08-01T07:57:05;1.87;;;1.50;;
14241;SDS011;7205;50.864;12.766;2023-08-01T07:59:32;1.60;;;1.50;;
14241;SDS011;7205;50.864;12.766;2023-08-01T08:01:59;2.03;;;1.83;;
14241;SDS011;7205;50.864;12.766;2023-08-01T08:04:26;1.90;;;1.80;;
14241;SDS011;7205;50.864;12.766;2023-08-01T08:06:53;1.57;;;1.47;;
14241;SDS011;7205;50.864;12.766;2023-08-01T08:09:20;2.47;;;1.30;;
14241;SDS011;7205;50.864;12.766;2023-08-01T08:11:47;2.33;;;1.30;;
14241;SDS011;7205;50.864;12.766;2023-08-01T08:14:16;1.37;;;1.27;;
14241;SDS011;7205;50.864;12.766;2023-08-01T08:16:45;1.70;;;0.83;;
14241;SDS011;7205;50.864;12.766;2023-08-01T08:19:12;1.17;;;1.00;;
14241;SDS011;7205;50.864;12.766;2023-08-01T08:21:39;1.10;;;1.10;;
14241;SDS011;7205;50.864;12.766;2023-08-01T08:24:06;1.23;;;1.13;;
14241;SDS011;7205;50.864;12.766;2023-08-01T08:26:33;1.10;;;1.10;;
14241;SDS011;7205;50.864;12.766;2023-08-01T08:29:04;3.17;;;2.70;;
14241;SDS011;7205;50.864;12.766;2023-08-01T08:31:32;2.07;;;1.97;;
14241;SDS011;7205;50.864;12.766;2023-08-01T08:33:59;3.63;;;2.03;;
14241;SDS011;7205;50.864;12.766;2023-08-01T08:36:31;1.10;;;1.00;;
14241;SDS011;7205;50.864;12.766;2023-08-01T08:39:06;1.70;;;1.07;;
14241;SDS011;7205;50.864;12.766;2023-08-01T08:41:38;1.70;;;1.40;;
14241;SDS011;7205;50.864;12.766;2023-08-01T08:44:17;1.00;;;1.00;;
14241;SDS011;7205;50.864;12.766;2023-08-01T08:46:48;1.00;;;1.00;;
14241;SDS011;7205;50.864;12.766;2023-08-01T08:49:17;0.93;;;0.90;;
14241;SDS011;7205;50.864;12.766;2023-08-01T08:51:47;0.90;;;0.90;;
14241;SDS011;7205;50.864;12.766;2023-08-01T08:54:20;1.37;;;1.27;;
14241;SDS011;7205;50.864;12.766;2023-08-01T08:56:53;0.80;;;0.80;;
14241;SDS011;7205;50.864;12.766;2023-08-01T08:59:25;1.17;;;1.17;;
14241;SDS011;7205;50.864;12.766;2023-08-01T09:01:58;1.00;;;1.00;;
14241;SDS011;7205;50.864;12.766;2023-08-01T09:04:31;1.20;;;1.10;;
14241;SDS011;7205;50.864;12.766;2023-08-01T09:07:00;0.97;;;0.83;;
14241;SDS011;7205;50.864;12.766;2023-08-01T09:09:31;1.10;;;1.10;;
14241;SDS011;7205;50.864;12.766;2023-08-01T09:12:08;1.20;;;1.10;;
14241;SDS011;7205;50.864;12.766;2023-08-01T09:14:38;1.20;;;1.10;;
14241;SDS011;7205;50.864;12.766;2023-08-01T09:17:07;1.83;;;1.07;;
14241;SDS011;7205;50.864;12.766;2023-08-01T09:19:57;0.97;;;0.90;;
14241;SDS011;7205;50.864;12.766;2023-08-01T09:22:42;0.90;;;0.90;;
14241;SDS011;7205;50.864;12.766;2023-08-01T09:25:33;0.73;;;0.73;;
14241;SDS011;7205;50.864;12.766;2023-08-01T09:28:00;1.00;;;1.00;;
14241;SDS011;7205;50.864;12.766;2023-08-01T09:30:33;0.90;;;0.90;;
14241;SDS011;7205;50.864;12.766;2023-08-01T09:33:36;0.40;;;0.40;;
14241;SDS011;7205;50.864;12.766;2023-08-01T09:36:11;0.73;;;0.73;;
14241;SDS011;7205;50.864;12.766;2023-08-01T09:39:05;1.60;;;0.90;;
14241;SDS011;7205;50.864;12.766;2023-08-01T09:41:36;0.83;;;0.83;;
14241;SDS011;7205;50.864;12.766;2023-08-01T09:44:20;0.60;;;0.60;;
14241;SDS011;7205;50.864;12.766;2023-08-01T09:46:55;0.50;;;0.50;;
14241;SDS011;7205;50.864;12.766;2023-08-01T09:49:46;1.90;;;0.80;;
14241;SDS011;7205;50.864;12.766;2023-08-01T09:52:32;2.00;;;0.60;;
14241;SDS011;7205;50.864;12.766;2023-08-01T09:55:03;0.73;;;0.73;;
14241;SDS011;7205;50.864;12.766;2023-08-01T09:57:31;0.60;;;0.60;;
14241;SDS011;7205;50.864;12.766;2023-08-01T10:00:04;0.73;;;0.73;;
14241;SDS011;7205;50.864;12.766;2023-08-01T10:02:43;0.83;;;0.67;;
14241;SDS011;7205;50.864;12.766;2023-08-01T10:05:35;0.70;;;0.70;;
14241;SDS011;7205;50.864;12.766;2023-08-01T10:08:24;1.33;;;0.53;;
14241;SDS011;7205;50.864;12.766;2023-08-01T10:10:58;0.50;;;0.50;;
14241;SDS011;7205;50.864;12.766;2023-08-01T10:13:39;0.25;;;0.25;;
14241;SDS011;7205;50.864;12.766;2023-08-01T10:16:15;0.43;;;0.43;;
14241;SDS011;7205;50.864;12.766;2023-08-01T10:18:59;1.20;;;0.32;;
14241;SDS011;7205;50.864;12.766;2023-08-01T10:21:34;0.60;;;0.60;;
14241;SDS011;7205;50.864;12.766;2023-08-01T10:24:10;0.80;;;0.80;;
14241;SDS011;7205;50.864;12.766;2023-08-01T10:26:41;0.70;;;0.70;;
14241;SDS011;7205;50.864;12.766;2023-08-01T10:29:11;2.38;;;0.77;;
14241;SDS011;7205;50.864;12.766;2023-08-01T10:31:54;0.80;;;0.55;;
14241;SDS011;7205;50.864;12.766;2023-08-01T10:34:33;0.45;;;0.45;;
14241;SDS011;7205;50.864;12.766;2023-08-01T10:37:18;0.40;;;0.40;;
14241;SDS011;7205;50.864;12.766;2023-08-01T10:40:16;0.70;;;0.70;;
14241;SDS011;7205;50.864;12.766;2023-08-01T10:43:18;1.10;;;0.80;;
14241;SDS011;7205;50.864;12.766;2023-08-01T10:46:00;0.80;;;0.80;;
14241;SDS011;7205;50.864;12.766;2023-08-01T10:48:52;0.80;;;0.80;;
14241;SDS011;7205;50.864;12.766;2023-08-01T10:51:38;1.63;;;1.10;;
14241;SDS011;7205;50.864;12.766;2023-08-01T10:54:26;0.98;;;0.88;;
14241;SDS011;7205;50.864;12.766;2023-08-01T10:57:15;2.15;;;1.10;;
14241;SDS011;7205;50.864;12.766;2023-08-01T10:59:53;1.75;;;1.08;;
14241;SDS011;7205;50.864;12.766;2023-08-01T11:02:21;1.02;;;0.95;;
14241;SDS011;7205;50.864;12.766;2023-08-01T11:04:56;1.25;;;0.80;;
14241;SDS011;7205;50.864;12.766;2023-08-01T11:07:23;0.90;;;0.90;;
14241;SDS011;7205;50.864;12.766;2023-08-01T11:10:03;0.00;;;0.00;;
14241;SDS011;7205;50.864;12.766;2023-08-01T11:12:43;0.00;;;0.00;;
14241;SDS011;7205;50.864;12.766;2023-08-01T11:15:28;0.00;;;0.00;;
14241;SDS011;7205;50.864;12.766;2023-08-01T11:18:04;0.00;;;0.00;;
14241;SDS011;7205;50.864;12.766;2023-08-01T11:20:38;0.00;;;0.00;;
14241;SDS011;7205;50.864;12.766;2023-08-01T11:26:23;0.00;;;0.00;;
14241;SDS011;7205;50.864;12.766;2023-08-01T11:28:52;0.00;;;0.00;;
14241;SDS011;7205;50.864;12.766;2023-08-01T11:31:28;0.00;;;0.00;;
14241;SDS011;7205;50.864;12.766;2023-08-01T11:34:03;0.00;;;0.00;;
14241;SDS011;7205;50.864;12.766;2023-08-01T11:36:31;0.00;;;0.00;;
14241;SDS011;7205;50.864;12.766;2023-08-01T11:38:58;0.00;;;0.00;;
14241;SDS011;7205;50.864;12.766;2023-08-01T11:41:28;0.00;;;0.00;;
14241;SDS011;7205;50.864;12.766;2023-08-01T11:43:55;0.00;;;0.00;;
14241;SDS011;7205;50.864;12.766;2023-08-01T11:46:30;0.00;;;0.00;;
14241;SDS011;7205;50.864;12.766;2023-08-01T11:48:58;0.00;;;0.00;;
14241;SDS011;7205;50.864;12.766;2023-08-01T11:51:28;0.00;;;0.00;;
14241;SDS011;7205;50.864;12.766;2023-08-01T11:53:58;0.00;;;0.00;;
14241;SDS011;7205;50.864;12.766;2023-08-01T11:56:27;0.00;;;0.00;;
14241;SDS011;7205;50.864;12.766;2023-08-01T11:58:54;0.00;;;0.00;;
14241;SDS011;7205;50.864;12.766;2023-08-01T12:01:25;0.00;;;0.00;;
14241;SDS011;7205;50.864;12.766;2023-08-01T12:03:53;0.00;;;0.00;;
14241;SDS011;7205;50.864;12.766;2023-08-01T12:06:21;0.00;;;0.00;;
14241;SDS011;7205;50.864;12.766;2023-08-01T12:08:50;0.00;;;0.00;;
14241;SDS011;7205;50.864;12.766;2023-08-01T12:11:19;0.00;;;0.00;;
14241;SDS011;7205;50.864;12.766;2023-08-01T12:13:48;0.00;;;0.00;;
14241;SDS011;7205;50.864;12.766;2023-08-01T12:16:25;0.00;;;0.00;;
14241;SDS011;7205;50.864;12.766;2023-08-01T12:19:04;0.00;;;0.00;;
14241;SDS011;7205;50.864;12.766;2023-08-01T12:25:21;0.00;;;0.00;;
14241;SDS011;7205;50.864;12.766;2023-08-01T12:28:18;0.00;;;0.00;;
14241;SDS011;7205;50.864;12.766;2023-08-01T12:30:52;0.00;;;0.00;;
14241;SDS011;7205;50.864;12.766;2023-08-01T12:33:32;0.00;;;0.00;;
14241;SDS011;7205;50.864;12.766;2023-08-01T12:36:23;0.00;;;0.00;;
14241;SDS011;7205;50.864;12.766;2023-08-01T12:40:20;0.00;;;0.00;;
14241;SDS011;7205;50.864;12.766;2023-08-01T12:43:08;0.00;;;0.00;;
14241;SDS011;7205;50.864;12.766;2023-08-01T12:45:58;0.00;;;0.00;;
14241;SDS011;7205;50.864;12.766;2023-08-01T12:48:26;0.00;;;0.00;;
14241;SDS011;7205;50.864;12.766;2023-08-01T12:50:59;0.00;;;0.00;;
14241;SDS011;7205;50.864;12.766;2023-08-01T12:53:46;0.00;;;0.00;;
14241;SDS011;7205;50.864;12.766;2023-08-01T12:56:16;0.00;;;0.00;;
14241;SDS011;7205;50.864;12.766;2023-08-01T12:58:51;0.00;;;0.00;;
14241;SDS011;7205;50.864;12.766;2023-08-01T13:01:57;0.00;;;0.00;;
14241;SDS011;7205;50.864;12.766;2023-08-01T13:05:28;0.00;;;0.00;;
14241;SDS011;7205;50.864;12.766;2023-08-01T13:08:14;0.00;;;0.00;;
14241;SDS011;7205;50.864;12.766;2023-08-01T13:11:53;0.00;;;0.00;;
14241;SDS011;7205;50.864;12.766;2023-08-01T13:15:02;0.00;;;0.00;;
14241;SDS011;7205;50.864;12.766;2023-08-01T13:17:45;0.00;;;0.00;;
14241;SDS011;7205;50.864;12.766;2023-08-01T13:54:54;0.00;;;0.00;;
14241;SDS011;7205;50.864;12.766;2023-08-01T14:08:38;1.70;;;1.60;;
14241;SDS011;7205;50.864;12.766;2023-08-01T14:11:53;1.92;;;1.83;;
14241;SDS011;7205;50.864;12.766;2023-08-01T14:22:31;2.55;;;2.45;;
14241;SDS011;7205;50.864;12.766;2023-08-01T14:24:59;1.33;;;1.33;;
14241;SDS011;7205;50.864;12.766;2023-08-01T14:27:26;2.55;;;2.35;;
14241;SDS011;7205;50.864;12.766;2023-08-01T14:30:21;3.53;;;1.90;;
14241;SDS011;7205;50.864;12.766;2023-08-01T15:13:19;2.27;;;1.40;;
14241;SDS011;7205;50.864;12.766;2023-08-01T15:16:00;3.93;;;1.73;;
14241;SDS011;7205;50.864;12.766;2023-08-01T15:18:27;1.83;;;1.57;;
14241;SDS011;7205;50.864;12.766;2023-08-01T15:21:35;1.55;;;1.45;;
14241;SDS011;7205;50.864;12.766;2023-08-01T15:49:39;2.28;;;1.00;;
14241;SDS011;7205;50.864;12.766;2023-08-01T15:52:08;1.02;;;1.02;;
14241;SDS011;7205;50.864;12.766;2023-08-01T15:56:42;1.10;;;1.10;;
14241;SDS011;7205;50.864;12.766;2023-08-01T16:01:34;1.13;;;1.13;;
14241;SDS011;7205;50.864;12.766;2023-08-01T16:04:01;1.55;;;1.45;;
14241;SDS011;7205;50.864;12.766;2023-08-01T16:06:27;1.40;;;1.30;;
14241;SDS011;7205;50.864;12.766;2023-08-01T16:12:50;2.20;;;1.40;;
14241;SDS011;7205;50.864;12.766;2023-08-01T16:15:17;1.93;;;1.83;;
14241;SDS011;7205;50.864;12.766;2023-08-01T16:49:14;1.60;;;1.50;;
14241;SDS011;7205;50.864;12.766;2023-08-01T16:55:40;1.63;;;1.52;;
14241;SDS011;7205;50.864;12.766;2023-08-01T17:25:58;1.20;;;1.10;;
14241;SDS011;7205;50.864;12.766;2023-08-01T17:28:24;1.33;;;1.20;;
14241;SDS011;7205;50.864;12.766;2023-08-01T17:31:04;1.05;;;1.05;;
14241;SDS011;7205;50.864;12.766;2023-08-01T17:33:32;1.33;;;1.23;;
14241;SDS011;7205;50.864;12.766;2023-08-01T17:50:18;2.13;;;1.30;;
14241;SDS011;7205;50.864;12.766;2023-08-01T17:56:27;2.60;;;1.73;;
14241;SDS011;7205;50.864;12.766;2023-08-01T18:17:16;1.90;;;1.80;;
14241;SDS011;7205;50.864;12.766;2023-08-01T18:19:45;2.70;;;1.27;;
14241;SDS011;7205;50.864;12.766;2023-08-01T18:22:12;1.40;;;1.30;;
14241;SDS011;7205;50.864;12.766;2023-08-01T18:24:39;1.70;;;1.60;;
14241;SDS011;7205;50.864;12.766;2023-08-01T18:27:06;2.00;;;1.70;;
14241;SDS011;7205;50.864;12.766;2023-08-01T18:29:33;2.10;;;1.90;;
14241;SDS011;7205;50.864;12.766;2023-08-01T18:32:10;3.13;;;1.80;;
14241;SDS011;7205;50.864;12.766;2023-08-01T18:34:38;2.37;;;2.00;;
14241;SDS011;7205;50.864;12.766;2023-08-01T18:37:33;2.53;;;2.33;;
14241;SDS011;7205;50.864;12.766;2023-08-01T18:40:28;2.73;;;2.00;;
14241;SDS011;7205;50.864;12.766;2023-08-01T18:43:12;2.97;;;2.20;;
14241;SDS011;7205;50.864;12.766;2023-08-01T18:46:12;2.07;;;1.97;;
14241;SDS011;7205;50.864;12.766;2023-08-01T18:48:54;2.10;;;2.00;;
14241;SDS011;7205;50.864;12.766;2023-08-01T18:51:23;2.77;;;1.90;;
14241;SDS011;7205;50.864;12.766;2023-08-01T18:57:28;2.10;;;2.00;;
14241;SDS011;7205;50.864;12.766;2023-08-01T19:00:57;2.30;;;2.13;;
14241;SDS011;7205;50.864;12.766;2023-08-01T19:03:49;3.27;;;1.60;;
14241;SDS011;7205;50.864;12.766;2023-08-01T19:06:43;2.30;;;2.10;;
14241;SDS011;7205;50.864;12.766;2023-08-01T19:09:50;2.87;;;2.67;;
14241;SDS011;7205;50.864;12.766;2023-08-01T19:12:49;2.00;;;1.90;;
14241;SDS011;7205;50.864;12.766;2023-08-01T19:15:45;2.53;;;2.30;;